createdAt,value
2022-08-27T00:02:58.615Z,-143.47
2022-08-27T00:06:03.875Z,-143.47
2022-08-27T00:09:07.550Z,-143.47
2022-08-27T00:12:12.427Z,-143.47
2022-08-27T00:15:17.922Z,-143.47
2022-08-27T00:18:22.795Z,-143.47
2022-08-27T00:21:27.796Z,-143.47
2022-08-27T00:24:31.083Z,-143.47
2022-08-27T00:27:34.441Z,-143.47
2022-08-27T00:30:39.819Z,-143.47
2022-08-27T00:33:43.554Z,-143.47
2022-08-27T00:36:48.276Z,-143.47
2022-08-27T00:39:51.606Z,-143.47
2022-08-27T00:42:55.196Z,-143.47
2022-08-27T00:46:05.973Z,-143.47
2022-08-27T00:49:14.168Z,-143.47
2022-08-27T00:52:25.111Z,-143.47
2022-08-27T00:55:31.963Z,-143.47
2022-08-27T00:58:41.890Z,-143.47
2022-08-27T01:02:01.173Z,-143.47
2022-08-27T01:05:09.098Z,-143.47
2022-08-27T01:08:17.404Z,-143.47
2022-08-27T01:11:21.580Z,-143.47
2022-08-27T01:14:25.731Z,-143.47
2022-08-27T01:17:29.255Z,-143.47
2022-08-27T01:20:43.861Z,-143.47
2022-08-27T01:23:55.630Z,-143.47
2022-08-27T01:27:02.179Z,-143.47
2022-08-27T01:30:08.965Z,-143.47
2022-08-27T01:33:16.066Z,-143.47
2022-08-27T01:36:36.941Z,17.27
2022-08-27T01:39:42.108Z,17.37
2022-08-27T01:42:47.859Z,17.42
2022-08-27T01:45:52.921Z,17.39
2022-08-27T01:48:56.926Z,17.28
2022-08-27T01:52:01.537Z,17.49
2022-08-27T01:55:06.685Z,17.43
2022-08-27T01:58:10.001Z,17.39
2022-08-27T02:01:18.515Z,17.39
2022-08-27T02:04:22.078Z,17.25
2022-08-27T02:07:27.777Z,17.38
2022-08-27T02:10:33.229Z,17.36
2022-08-27T02:13:36.813Z,17.32
2022-08-27T02:16:52.204Z,17.29
2022-08-27T02:19:56.841Z,17.27
2022-08-27T02:23:01.701Z,17.20
2022-08-27T02:26:05.015Z,17.23
2022-08-27T02:29:09.590Z,17.80
2022-08-27T02:32:17.722Z,17.88
2022-08-27T02:35:38.938Z,17.53
2022-08-27T02:38:45.953Z,17.96
2022-08-27T02:41:49.526Z,17.76
2022-08-27T02:44:54.936Z,17.51
2022-08-27T02:47:58.221Z,17.39
2022-08-27T02:51:01.368Z,16.90
2022-08-27T02:54:06.337Z,17.23
2022-08-27T02:57:13.125Z,17.21
2022-08-27T03:00:19.457Z,17.28
2022-08-27T03:03:22.598Z,17.19
2022-08-27T03:06:25.819Z,17.17
2022-08-27T03:09:30.309Z,17.12
2022-08-27T03:12:34.261Z,17.15
2022-08-27T03:15:37.434Z,17.23
2022-08-27T03:18:41.623Z,17.14
2022-08-27T03:21:45.297Z,17.39
2022-08-27T03:24:59.507Z,17.40
2022-08-27T03:28:03.052Z,17.37
2022-08-27T03:34:26.935Z,17.09
2022-08-27T03:37:30.128Z,17.06
2022-08-27T03:40:33.426Z,17.02
2022-08-27T03:43:37.078Z,17.21
2022-08-27T03:46:40.423Z,17.15
2022-08-27T03:49:45.691Z,17.18
2022-08-27T03:52:49.801Z,16.98
2022-08-27T03:55:53.113Z,17.04
2022-08-27T03:58:56.629Z,17.09
2022-08-27T04:02:00.423Z,17.12
2022-08-27T04:05:05.789Z,16.99
2022-08-27T04:08:09.378Z,17.18
2022-08-27T04:11:12.699Z,17.16
2022-08-27T04:14:24.657Z,16.98
2022-08-27T04:17:30.545Z,16.96
2022-08-27T04:20:36.134Z,17.03
2022-08-27T04:23:40.139Z,17.31
2022-08-27T04:26:45.709Z,17.32
2022-08-27T04:29:49.649Z,17.25
2022-08-27T04:32:54.542Z,17.23
2022-08-27T04:36:03.693Z,17.64
2022-08-27T04:39:07.103Z,17.14
2022-08-27T04:42:10.465Z,17.14
2022-08-27T04:45:13.785Z,17.15
2022-08-27T04:48:19.947Z,17.08
2022-08-27T04:51:25.010Z,17.09
2022-08-27T04:54:32.987Z,17.32
2022-08-27T04:57:37.995Z,17.14
2022-08-27T05:00:45.192Z,17.14
2022-08-27T05:03:49.213Z,17.10
2022-08-27T05:06:54.503Z,17.13
2022-08-27T05:09:58.077Z,17.35
2022-08-27T05:13:01.280Z,17.13
2022-08-27T05:16:07.222Z,17.04
2022-08-27T05:19:14.549Z,17.19
2022-08-27T05:22:19.329Z,17.17
2022-08-27T05:25:22.652Z,17.21
2022-08-27T05:28:27.813Z,17.16
2022-08-27T05:31:31.470Z,17.19
2022-08-27T05:34:34.997Z,17.16
2022-08-27T05:37:40.455Z,17.19
2022-08-27T05:40:45.057Z,17.27
2022-08-27T05:43:50.446Z,17.30
2022-08-27T05:46:56.049Z,17.32
2022-08-27T05:49:59.306Z,17.34
2022-08-27T05:53:03.891Z,17.32
2022-08-27T05:56:13.709Z,17.31
2022-08-27T05:59:35.077Z,17.21
2022-08-27T06:02:39.292Z,17.22
2022-08-27T06:05:42.638Z,17.50
2022-08-27T06:08:47.750Z,18.67
2022-08-27T06:11:51.222Z,17.75
2022-08-27T06:14:54.593Z,18.50
2022-08-27T06:17:58.385Z,17.61
2022-08-27T06:21:01.899Z,18.05
2022-08-27T06:24:07.259Z,18.43
2022-08-27T06:27:13.182Z,17.83
2022-08-27T06:30:17.677Z,17.77
2022-08-27T06:33:21.273Z,18.29
2022-08-27T06:36:26.186Z,18.06
2022-08-27T06:39:31.903Z,17.75
2022-08-27T06:42:35.456Z,17.60
2022-08-27T06:45:40.987Z,17.75
2022-08-27T06:48:47.002Z,17.74
2022-08-27T06:51:50.150Z,17.72
2022-08-27T06:54:54.939Z,17.73
2022-08-27T06:57:58.158Z,17.64
2022-08-27T07:01:01.510Z,17.62
2022-08-27T07:04:07.367Z,17.67
2022-08-27T07:07:13.639Z,17.74
2022-08-27T07:10:20.467Z,17.99
2022-08-27T07:13:24.500Z,17.67
2022-08-27T07:16:29.443Z,17.69
2022-08-27T07:19:34.210Z,17.72
2022-08-27T07:22:44.569Z,17.81
2022-08-27T07:25:50.156Z,17.83
2022-08-27T07:28:55.852Z,18.10
2022-08-27T07:31:59.020Z,18.16
2022-08-27T07:35:03.079Z,18.54
2022-08-27T07:38:06.910Z,18.25
2022-08-27T07:41:14.132Z,18.04
2022-08-27T07:44:26.268Z,18.14
2022-08-27T07:47:32.559Z,18.19
2022-08-27T07:50:36.147Z,18.31
2022-08-27T07:53:39.336Z,18.42
2022-08-27T07:56:55.471Z,18.41
2022-08-27T07:59:59.468Z,18.26
2022-08-27T08:03:03.435Z,18.28
2022-08-27T08:06:09.437Z,18.77
2022-08-27T08:09:12.605Z,18.73
2022-08-27T08:12:17.374Z,18.99
2022-08-27T08:15:29.498Z,18.77
2022-08-27T08:18:32.659Z,18.35
2022-08-27T08:21:36.744Z,18.83
2022-08-27T08:24:40.049Z,18.72
2022-08-27T08:27:45.874Z,19.01
2022-08-27T08:30:54.873Z,19.12
2022-08-27T08:33:58.638Z,18.93
2022-08-27T08:37:01.803Z,18.86
2022-08-27T08:40:07.849Z,18.90
2022-08-27T08:43:25.263Z,18.97
2022-08-27T08:46:34.463Z,19.04
2022-08-27T08:49:49.457Z,18.99
2022-08-27T08:53:00.107Z,19.19
2022-08-27T08:56:09.030Z,19.17
2022-08-27T08:59:27.190Z,19.15
2022-08-27T09:02:30.336Z,19.71
2022-08-27T09:05:33.864Z,19.12
2022-08-27T09:08:41.859Z,19.29
2022-08-27T09:11:51.084Z,19.07
2022-08-27T09:15:01.250Z,19.72
2022-08-27T09:18:07.026Z,19.51
2022-08-27T09:21:27.920Z,19.70
2022-08-27T09:24:44.129Z,19.66
2022-08-27T09:27:49.116Z,19.89
2022-08-27T09:34:29.014Z,19.83
2022-08-27T09:37:35.030Z,19.79
2022-08-27T09:40:42.767Z,19.89
2022-08-27T09:43:45.861Z,19.80
2022-08-27T09:46:54.938Z,19.99
2022-08-27T09:50:06.971Z,20.29
2022-08-27T09:53:19.829Z,20.04
2022-08-27T09:56:28.626Z,19.71
2022-08-27T09:59:36.510Z,19.91
2022-08-27T10:02:50.570Z,20.41
2022-08-27T10:05:55.361Z,19.95
2022-08-27T10:09:07.103Z,20.17
2022-08-27T10:12:18.323Z,20.16
2022-08-27T10:15:22.133Z,20.40
2022-08-27T10:18:34.952Z,20.29
2022-08-27T10:21:51.976Z,20.18
2022-08-27T10:25:10.804Z,20.73
2022-08-27T10:28:27.051Z,21.18
2022-08-27T10:31:39.973Z,20.82
2022-08-27T10:34:57.162Z,20.72
2022-08-27T10:38:11.582Z,20.54
2022-08-27T10:41:19.058Z,20.73
2022-08-27T10:44:43.198Z,21.02
2022-08-27T10:48:05.723Z,21.27
2022-08-27T10:51:15.506Z,21.05
2022-08-27T10:54:30.190Z,21.02
2022-08-27T10:57:59.050Z,21.14
2022-08-27T11:01:17.873Z,21.13
2022-08-27T11:04:24.394Z,21.41
2022-08-27T11:07:33.965Z,21.28
2022-08-27T11:10:43.204Z,21.29
2022-08-27T11:13:51.557Z,21.27
2022-08-27T11:17:02.926Z,21.89
2022-08-27T11:20:12.483Z,21.66
2022-08-27T11:23:20.393Z,21.66
2022-08-27T11:26:25.082Z,21.87
2022-08-27T11:29:34.955Z,22.76
2022-08-27T11:32:51.529Z,22.72
2022-08-27T11:36:11.213Z,22.17
2022-08-27T11:39:28.948Z,22.40
2022-08-27T11:42:42.077Z,21.99
2022-08-27T11:45:56.868Z,22.10
2022-08-27T11:49:03.241Z,22.19
2022-08-27T11:52:08.730Z,22.44
2022-08-27T11:55:25.645Z,22.90
2022-08-27T11:58:33.821Z,23.04
2022-08-27T12:01:59.674Z,22.55
2022-08-27T12:05:12.000Z,22.66
2022-08-27T12:08:21.184Z,22.59
2022-08-27T12:11:37.690Z,23.59
2022-08-27T12:14:48.923Z,23.04
2022-08-27T12:18:05.078Z,22.75
2022-08-27T12:21:18.853Z,23.31
2022-08-27T12:24:41.812Z,22.50
2022-08-27T12:27:57.910Z,22.82
2022-08-27T12:31:06.551Z,22.48
2022-08-27T12:34:15.998Z,22.55
2022-08-27T12:37:28.243Z,22.51
2022-08-27T12:40:40.656Z,22.50
2022-08-27T12:43:44.106Z,22.68
2022-08-27T12:46:51.371Z,23.19
2022-08-27T12:49:58.107Z,23.42
2022-08-27T12:53:24.802Z,23.15
2022-08-27T12:56:42.780Z,22.66
2022-08-27T12:59:56.817Z,23.10
2022-08-27T13:03:22.315Z,22.25
2022-08-27T13:06:29.799Z,22.10
2022-08-27T13:09:35.109Z,22.07
2022-08-27T13:12:38.404Z,21.95
2022-08-27T13:15:44.842Z,22.14
2022-08-27T13:18:51.307Z,21.93
2022-08-27T13:21:55.365Z,22.27
2022-08-27T13:25:00.533Z,22.11
2022-08-27T13:28:10.333Z,21.87
2022-08-27T13:31:15.267Z,22.30
2022-08-27T13:34:22.488Z,22.18
2022-08-27T13:37:29.918Z,22.54
2022-08-27T13:40:36.830Z,22.59
2022-08-27T13:43:43.331Z,22.59
2022-08-27T13:46:49.943Z,22.29
2022-08-27T13:50:04.634Z,22.68
2022-08-27T13:53:28.787Z,22.30
2022-08-27T13:56:33.807Z,22.54
2022-08-27T13:59:42.870Z,22.37
2022-08-27T14:02:55.960Z,22.85
2022-08-27T14:06:01.840Z,23.04
2022-08-27T14:09:17.817Z,22.84
2022-08-27T14:12:33.114Z,23.41
2022-08-27T14:15:39.324Z,22.75
2022-08-27T14:18:59.223Z,23.03
2022-08-27T14:22:08.569Z,22.71
2022-08-27T14:25:12.175Z,22.76
2022-08-27T14:28:15.327Z,22.56
2022-08-27T14:31:18.666Z,22.74
2022-08-27T14:34:22.455Z,22.42
2022-08-27T14:37:27.293Z,22.59
2022-08-27T14:40:31.359Z,23.09
2022-08-27T14:43:36.530Z,22.91
2022-08-27T14:46:42.973Z,23.04
2022-08-27T14:49:48.331Z,23.06
2022-08-27T14:52:52.985Z,23.48
2022-08-27T14:55:58.881Z,23.47
2022-08-27T14:59:02.469Z,23.60
2022-08-27T15:02:09.789Z,23.70
2022-08-27T15:05:13.352Z,23.40
2022-08-27T15:08:17.943Z,23.30
2022-08-27T15:11:24.510Z,22.50
2022-08-27T15:14:31.455Z,23.10
2022-08-27T15:17:35.703Z,22.96
2022-08-27T15:20:40.324Z,22.35
2022-08-27T15:26:49.235Z,23.04
2022-08-27T15:29:54.827Z,22.51
2022-08-27T15:34:26.547Z,22.23
2022-08-27T15:37:30.552Z,22.18
2022-08-27T15:40:36.310Z,21.95
2022-08-27T15:43:40.234Z,22.20
2022-08-27T15:46:43.874Z,22.45
2022-08-27T15:49:49.026Z,22.39
2022-08-27T15:52:57.791Z,22.65
2022-08-27T15:56:03.123Z,22.61
2022-08-27T15:59:07.256Z,22.49
2022-08-27T16:02:15.616Z,22.48
2022-08-27T16:05:24.680Z,22.19
2022-08-27T16:08:30.504Z,22.27
2022-08-27T16:11:37.315Z,22.11
2022-08-27T16:14:40.498Z,22.25
2022-08-27T16:17:44.913Z,22.01
2022-08-27T16:20:49.457Z,22.10
2022-08-27T16:23:52.666Z,22.05
2022-08-27T16:26:56.107Z,22.06
2022-08-27T16:29:59.249Z,21.89
2022-08-27T16:33:02.446Z,21.80
2022-08-27T16:36:07.893Z,21.79
2022-08-27T16:39:11.120Z,21.62
2022-08-27T16:42:14.369Z,21.32
2022-08-27T16:45:19.913Z,21.61
2022-08-27T16:48:41.443Z,21.36
2022-08-27T16:51:46.350Z,20.94
2022-08-27T16:54:50.169Z,20.06
2022-08-27T16:57:53.693Z,19.34
2022-08-27T17:00:58.729Z,19.50
2022-08-27T17:04:10.230Z,19.11
2022-08-27T17:07:17.549Z,19.34
2022-08-27T17:10:21.085Z,18.98
2022-08-27T17:13:28.258Z,19.02
2022-08-27T17:16:32.720Z,19.21
2022-08-27T17:19:37.011Z,19.16
2022-08-27T17:22:41.607Z,19.08
2022-08-27T17:25:44.868Z,19.04
2022-08-27T17:28:48.431Z,19.10
2022-08-27T17:31:52.178Z,19.03
2022-08-27T17:34:55.580Z,19.76
2022-08-27T17:38:00.385Z,18.80
2022-08-27T17:41:09.726Z,18.83
2022-08-27T17:44:21.265Z,18.80
2022-08-27T17:47:25.374Z,18.84
2022-08-27T17:50:28.958Z,18.84
2022-08-27T17:53:34.259Z,19.02
2022-08-27T17:56:40.070Z,18.94
2022-08-27T17:59:43.541Z,18.80
2022-08-27T18:02:49.069Z,18.94
2022-08-27T18:05:52.307Z,18.82
2022-08-27T18:08:57.061Z,18.81
2022-08-27T18:12:00.494Z,18.90
2022-08-27T18:15:08.939Z,18.78
2022-08-27T18:18:13.354Z,18.57
2022-08-27T18:21:25.370Z,18.98
2022-08-27T18:24:30.905Z,18.99
2022-08-27T18:27:35.875Z,19.23
2022-08-27T18:30:43.847Z,18.79
2022-08-27T18:33:47.450Z,18.74
2022-08-27T18:36:52.167Z,18.66
2022-08-27T18:39:57.073Z,18.55
2022-08-27T18:43:00.298Z,18.65
2022-08-27T18:46:04.797Z,18.56
2022-08-27T18:49:08.218Z,18.72
2022-08-27T18:52:13.445Z,18.54
2022-08-27T18:55:20.792Z,18.52
2022-08-27T18:58:24.447Z,18.52
2022-08-27T19:01:29.041Z,18.61
2022-08-27T19:04:34.381Z,18.49
2022-08-27T19:07:38.005Z,18.57
2022-08-27T19:10:42.542Z,18.53
2022-08-27T19:13:50.538Z,18.53
2022-08-27T19:16:57.080Z,18.75
2022-08-27T19:20:01.975Z,18.76
2022-08-27T19:23:05.204Z,18.69
2022-08-27T19:26:16.569Z,18.54
2022-08-27T19:29:20.176Z,18.61
2022-08-27T19:32:23.745Z,18.50
2022-08-27T19:35:27.095Z,18.48
2022-08-27T19:38:32.516Z,18.48
2022-08-27T19:41:37.328Z,18.54
2022-08-27T19:44:40.459Z,18.60
2022-08-27T19:47:43.757Z,18.42
2022-08-27T19:50:47.009Z,18.59
2022-08-27T19:53:53.980Z,18.36
2022-08-27T19:56:58.579Z,18.50
2022-08-27T20:00:01.876Z,18.37
2022-08-27T20:03:13.023Z,18.44
2022-08-27T20:06:18.562Z,18.38
2022-08-27T20:09:22.352Z,18.47
2022-08-27T20:12:26.964Z,18.42
2022-08-27T20:15:30.687Z,18.45
2022-08-27T20:18:35.088Z,18.42
2022-08-27T20:21:39.554Z,18.41
2022-08-27T20:24:43.098Z,18.44
2022-08-27T20:27:48.055Z,18.32
2022-08-27T20:30:51.272Z,18.45
2022-08-27T20:33:54.529Z,18.41
2022-08-27T20:36:58.859Z,18.58
2022-08-27T20:40:02.392Z,18.58
2022-08-27T20:43:07.060Z,18.29
2022-08-27T20:46:11.101Z,18.39
2022-08-27T20:49:14.538Z,18.29
2022-08-27T20:52:19.179Z,18.35
2022-08-27T20:55:23.884Z,18.55
2022-08-27T20:58:46.012Z,18.32
2022-08-27T21:01:49.251Z,18.30
2022-08-27T21:04:52.667Z,18.48
2022-08-27T21:07:55.868Z,18.29
2022-08-27T21:11:00.498Z,18.32
2022-08-27T21:14:05.285Z,18.36
2022-08-27T21:17:09.535Z,18.40
2022-08-27T21:20:15.422Z,18.35
2022-08-27T21:23:19.868Z,18.33
2022-08-27T21:26:23.626Z,18.45
2022-08-27T21:29:28.447Z,18.47
2022-08-27T21:34:30.914Z,18.63
2022-08-27T21:37:34.316Z,18.48
2022-08-27T21:40:37.779Z,18.14
2022-08-27T21:43:41.256Z,18.22
2022-08-27T21:46:44.710Z,18.70
2022-08-27T21:49:49.714Z,18.42
2022-08-27T21:52:53.555Z,18.40
2022-08-27T21:55:56.896Z,18.59
2022-08-27T21:59:00.432Z,18.28
2022-08-27T22:02:18.069Z,18.35
2022-08-27T22:05:28.610Z,18.41
2022-08-27T22:08:32.025Z,18.49
2022-08-27T22:11:35.954Z,18.46
2022-08-27T22:14:40.830Z,18.38
2022-08-27T22:17:46.250Z,18.29
2022-08-27T22:20:54.271Z,18.34
2022-08-27T22:23:57.424Z,18.38
2022-08-27T22:27:00.596Z,18.63
2022-08-27T22:30:07.379Z,18.35
2022-08-27T22:33:14.874Z,18.50
2022-08-27T22:36:19.451Z,18.35
2022-08-27T22:39:23.130Z,18.35
2022-08-27T22:42:28.154Z,18.20
2022-08-27T22:45:31.370Z,18.35
2022-08-27T22:48:34.711Z,18.77
2022-08-27T22:51:39.712Z,18.04
2022-08-27T22:54:43.007Z,18.21
2022-08-27T22:57:46.926Z,18.09
2022-08-27T23:00:52.609Z,18.17
2022-08-27T23:03:56.518Z,18.42
2022-08-27T23:07:01.895Z,17.93
2022-08-27T23:10:07.049Z,18.17
2022-08-27T23:13:11.136Z,18.09
2022-08-27T23:16:15.835Z,17.91
2022-08-27T23:19:19.366Z,18.00
2022-08-27T23:22:24.127Z,18.14
2022-08-27T23:25:45.760Z,18.01
2022-08-27T23:28:48.950Z,17.91
2022-08-27T23:31:53.060Z,17.87
2022-08-27T23:34:56.629Z,18.12
2022-08-27T23:38:01.250Z,18.27
2022-08-27T23:41:05.702Z,18.23
2022-08-27T23:44:09.154Z,17.90
2022-08-27T23:47:12.416Z,17.97
2022-08-27T23:50:16.354Z,17.92
2022-08-27T23:53:21.043Z,17.97
2022-08-27T23:56:28.121Z,18.00
2022-08-27T23:59:33.428Z,17.82
